Time;durP1;ratioP1;P1;durP2;ratioP2;P2;SDS_P1;SDS_P2;PMS_P1;PMS_P2;Temp;Humidity;BMP_temperature;BMP_pressure;BME280_temperature;BME280_humidity;BME280_pressure;Samples;Min_cycle;Max_cycle;Signal;HPM_P1;HPM_P2
2021/12/29 00:02:11;;;;;;;3.70;3.38;;;13.10;99.90;;;;;;5016477;28;20041;-79
2021/12/29 00:04:36;;;;;;;0.40;0.40;;;13.10;99.90;;;;;;5016909;28;20033;-79
2021/12/29 00:07:02;;;;;;;17.77;3.08;;;13.10;99.90;;;;;;5016366;28;20030;-80
2021/12/29 00:09:32;;;;;;;0.38;0.38;;;13.10;99.90;;;;;;5016087;28;20033;-80
2021/12/29 00:11:57;;;;;;;0.63;0.55;;;13.00;99.90;;;;;;5019109;28;20072;-83
2021/12/29 00:14:23;;;;;;;0.10;0.10;;;13.00;99.90;;;;;;5020735;28;20474;-80
2021/12/29 00:16:49;;;;;;;0.25;0.25;;;13.00;99.90;;;;;;5018362;28;20021;-79
2021/12/29 00:19:15;;;;;;;0.28;0.28;;;13.00;99.90;;;;;;5018212;28;20053;-84
2021/12/29 00:21:41;;;;;;;0.80;0.80;;;13.10;99.90;;;;;;5022004;28;20034;-83
2021/12/29 00:24:06;;;;;;;1.55;1.15;;;13.10;99.90;;;;;;5025874;28;20036;-82
2021/12/29 00:26:33;;;;;;;2.67;1.15;;;13.10;99.90;;;;;;5020278;28;20030;-80
2021/12/29 00:29:00;;;;;;;0.57;0.57;;;13.10;99.90;;;;;;5036159;28;20068;-80
2021/12/29 00:31:31;;;;;;;0.20;0.20;;;13.00;99.90;;;;;;5036803;28;20052;-80
2021/12/29 00:33:58;;;;;;;5.15;2.28;;;13.00;99.90;;;;;;5038355;28;20094;-80
2021/12/29 00:36:23;;;;;;;4.13;1.77;;;12.90;99.90;;;;;;5034996;28;20049;-80
2021/12/29 00:38:49;;;;;;;0.25;0.25;;;12.90;99.90;;;;;;5014531;28;20026;-80
2021/12/29 00:41:16;;;;;;;0.00;0.00;;;12.80;99.90;;;;;;5014282;28;20054;-79
2021/12/29 00:43:44;;;;;;;0.45;0.45;;;12.70;99.90;;;;;;5015792;28;20547;-80
2021/12/29 00:46:12;;;;;;;0.47;0.47;;;12.70;99.90;;;;;;5015328;28;20485;-80
2021/12/29 00:48:41;;;;;;;1.30;1.23;;;12.60;99.90;;;;;;5015252;28;20052;-80
2021/12/29 00:51:08;;;;;;;0.55;0.50;;;12.60;99.90;;;;;;5015198;28;20041;-80
2021/12/29 00:53:34;;;;;;;6.75;2.70;;;12.60;99.90;;;;;;5013815;28;20401;-80
2021/12/29 00:56:01;;;;;;;1.25;1.25;;;12.60;99.90;;;;;;5015464;28;20056;-80
2021/12/29 00:58:28;;;;;;;1.30;1.23;;;12.60;99.90;;;;;;5015448;28;20072;-80
2021/12/29 01:00:54;;;;;;;0.00;0.00;;;12.60;99.90;;;;;;5015286;28;20026;-80
2021/12/29 01:03:19;;;;;;;0.10;0.10;;;12.60;99.90;;;;;;5015135;28;20029;-80
2021/12/29 01:05:45;;;;;;;0.35;0.30;;;12.60;99.90;;;;;;5014825;28;20026;-80
2021/12/29 01:08:11;;;;;;;1.77;1.27;;;12.60;99.90;;;;;;5013243;28;20030;-80
2021/12/29 01:10:39;;;;;;;0.63;0.40;;;12.60;99.90;;;;;;5013867;28;20393;-79
2021/12/29 01:13:07;;;;;;;0.00;0.00;;;12.60;99.90;;;;;;5014009;28;20030;-79
2021/12/29 01:15:47;;;;;;;0.00;0.00;;;12.60;99.90;;;;;;5015214;28;20432;-80
2021/12/29 01:18:13;;;;;;;0.00;0.00;;;12.60;99.90;;;;;;5014900;28;20029;-79
2021/12/29 01:20:39;;;;;;;0.00;0.00;;;12.70;99.90;;;;;;5014776;28;20022;-80
2021/12/29 01:23:04;;;;;;;3.30;2.20;;;12.60;99.90;;;;;;5014853;28;20038;-80
2021/12/29 01:25:31;;;;;;;0.10;0.10;;;12.60;99.90;;;;;;5014642;28;20030;-81
2021/12/29 01:27:57;;;;;;;0.00;0.00;;;12.60;99.90;;;;;;5014591;28;20505;-82
2021/12/29 01:30:23;;;;;;;0.00;0.00;;;12.60;99.90;;;;;;5013978;28;20049;-82
2021/12/29 01:32:48;;;;;;;0.00;0.00;;;12.70;99.90;;;;;;5014656;28;20030;-80
2021/12/29 01:35:14;;;;;;;0.00;0.00;;;12.60;99.90;;;;;;5013600;28;20034;-78
2021/12/29 01:37:40;;;;;;;0.00;0.00;;;12.70;99.90;;;;;;5014722;28;20025;-81
2021/12/29 01:40:11;;;;;;;0.80;0.52;;;12.70;99.90;;;;;;5015124;28;20022;-80
2021/12/29 01:42:37;;;;;;;0.10;0.10;;;12.70;99.90;;;;;;5015388;28;20026;-80
2021/12/29 01:45:04;;;;;;;1.92;1.70;;;12.70;99.90;;;;;;5013413;28;20029;-77
2021/12/29 01:47:31;;;;;;;0.00;0.00;;;12.70;99.90;;;;;;5013807;28;20148;-77
2021/12/29 01:50:00;;;;;;;0.00;0.00;;;12.70;99.90;;;;;;5013914;28;20096;-78
2021/12/29 01:52:30;;;;;;;0.30;0.30;;;12.70;99.90;;;;;;5014303;28;20103;-79
2021/12/29 01:54:56;;;;;;;0.20;0.20;;;12.70;99.90;;;;;;5014346;28;20030;-78
2021/12/29 01:57:22;;;;;;;3.00;1.85;;;12.70;99.90;;;;;;5014246;28;20060;-79
2021/12/29 01:59:48;;;;;;;0.73;0.40;;;12.70;99.90;;;;;;5013992;28;20473;-78
2021/12/29 02:02:14;;;;;;;0.00;0.00;;;12.70;99.90;;;;;;5012349;28;20022;-78
2021/12/29 02:04:44;;;;;;;0.00;0.00;;;12.60;99.90;;;;;;5013901;28;20057;-77
2021/12/29 02:07:11;;;;;;;0.17;0.17;;;12.60;99.90;;;;;;5014163;28;20100;-79
2021/12/29 02:09:37;;;;;;;0.00;0.00;;;12.60;99.90;;;;;;5012184;28;20088;-78
2021/12/29 02:12:03;;;;;;;0.00;0.00;;;12.60;99.90;;;;;;5014027;28;20026;-78
2021/12/29 02:14:30;;;;;;;0.80;0.22;;;12.60;99.90;;;;;;5014051;28;20053;-78
2021/12/29 02:16:56;;;;;;;0.00;0.00;;;12.60;99.90;;;;;;5012627;28;20018;-80
2021/12/29 02:19:24;;;;;;;0.70;0.70;;;12.60;99.90;;;;;;5012892;28;20033;-80
2021/12/29 02:21:57;;;;;;;1.38;1.15;;;12.60;99.90;;;;;;5013529;28;20091;-80
2021/12/29 02:24:34;;;;;;;0.28;0.28;;;12.60;99.90;;;;;;5004467;28;20026;-78
2021/12/29 02:27:01;;;;;;;0.00;0.00;;;12.60;99.90;;;;;;5007840;28;20030;-77
2021/12/29 02:29:29;;;;;;;0.10;0.10;;;12.60;99.90;;;;;;5013588;28;20083;-78
2021/12/29 02:31:54;;;;;;;0.63;0.55;;;12.60;99.90;;;;;;5013816;28;20120;-79
2021/12/29 02:34:20;;;;;;;0.00;0.00;;;12.60;99.90;;;;;;5013566;28;20109;-79
2021/12/29 02:36:46;;;;;;;0.17;0.17;;;12.70;99.90;;;;;;5013395;28;20032;-79
2021/12/29 02:39:18;;;;;;;6.70;0.88;;;12.60;99.90;;;;;;5013395;28;20018;-78
2021/12/29 02:41:49;;;;;;;0.52;0.52;;;12.60;99.90;;;;;;5013418;28;20033;-77
2021/12/29 02:44:20;;;;;;;8.80;2.50;;;12.60;99.90;;;;;;5013327;28;20479;-79
2021/12/29 02:46:46;;;;;;;1.48;1.02;;;12.60;99.90;;;;;;5013252;28;20022;-77
2021/12/29 02:49:12;;;;;;;2.33;2.08;;;12.60;99.90;;;;;;5011644;28;20052;-78
2021/12/29 02:51:38;;;;;;;0.00;0.00;;;12.70;99.90;;;;;;5013108;28;20061;-78
2021/12/29 02:54:04;;;;;;;0.32;0.32;;;12.70;99.90;;;;;;5012900;28;20100;-77
2021/12/29 02:56:30;;;;;;;2.22;1.65;;;12.70;99.90;;;;;;5012018;28;20061;-81
2021/12/29 02:58:57;;;;;;;0.35;0.35;;;12.70;99.90;;;;;;5013324;28;20049;-78
2021/12/29 03:01:24;;;;;;;1.40;0.77;;;12.70;99.90;;;;;;5013198;28;20026;-77
2021/12/29 03:03:50;;;;;;;1.13;1.13;;;12.80;99.90;;;;;;5013076;28;20022;-80
2021/12/29 03:06:16;;;;;;;1.25;1.17;;;12.80;99.90;;;;;;5012667;28;20465;-77
2021/12/29 03:08:43;;;;;;;0.10;0.10;;;12.80;99.90;;;;;;5012945;28;20067;-80
2021/12/29 03:11:10;;;;;;;0.10;0.10;;;12.80;99.90;;;;;;5010261;28;20085;-77
2021/12/29 03:13:38;;;;;;;0.20;0.20;;;12.80;99.90;;;;;;5012815;28;20489;-81
2021/12/29 03:16:05;;;;;;;2.75;2.00;;;12.80;99.90;;;;;;5013342;28;20026;-81
2021/12/29 03:18:31;;;;;;;0.00;0.00;;;12.80;99.90;;;;;;5011850;28;20501;-78
2021/12/29 03:20:57;;;;;;;0.45;0.45;;;12.80;99.90;;;;;;5012734;28;20026;-81
2021/12/29 03:23:23;;;;;;;0.13;0.13;;;12.80;99.90;;;;;;5011697;28;20025;-81
2021/12/29 03:25:49;;;;;;;3.38;1.65;;;12.80;99.90;;;;;;4997664;28;20048;-79
2021/12/29 03:28:23;;;;;;;0.45;0.45;;;12.80;99.90;;;;;;5012463;28;20516;-78
2021/12/29 03:30:53;;;;;;;6.82;1.20;;;12.80;99.90;;;;;;5012496;28;20114;-78
2021/12/29 03:33:20;;;;;;;0.08;0.08;;;12.80;99.90;;;;;;5012671;28;20026;-78
2021/12/29 03:35:51;;;;;;;13.15;3.33;;;12.80;99.90;;;;;;5012762;28;20048;-81
2021/12/29 03:38:25;;;;;;;10.00;2.85;;;12.80;99.90;;;;;;5011995;28;20113;-82
2021/12/29 03:40:52;;;;;;;0.90;0.90;;;12.80;99.90;;;;;;5014272;28;20426;-82
2021/12/29 03:43:18;;;;;;;3.88;1.98;;;12.80;99.90;;;;;;5013150;28;20497;-78
2021/12/29 03:45:47;;;;;;;0.00;0.00;;;12.90;99.90;;;;;;5012719;28;20184;-79
2021/12/29 03:48:14;;;;;;;1.17;1.02;;;12.80;99.90;;;;;;5012530;28;20076;-81
2021/12/29 03:50:41;;;;;;;0.35;0.22;;;12.80;99.90;;;;;;5012162;28;20029;-80
2021/12/29 03:53:09;;;;;;;4.90;1.92;;;12.80;99.90;;;;;;5012190;28;20515;-79
2021/12/29 03:55:35;;;;;;;1.25;0.43;;;12.90;99.90;;;;;;5012424;28;20393;-79
2021/12/29 03:58:01;;;;;;;0.25;0.25;;;12.80;99.90;;;;;;5012292;28;20371;-79
2021/12/29 04:00:27;;;;;;;22.67;0.35;;;12.80;99.90;;;;;;5012583;28;20113;-77
2021/12/29 04:02:53;;;;;;;0.00;0.00;;;12.80;99.90;;;;;;5012735;28;20560;-82
2021/12/29 04:05:21;;;;;;;0.00;0.00;;;12.80;99.90;;;;;;5013390;28;20057;-80
2021/12/29 04:07:48;;;;;;;0.22;0.22;;;12.80;99.90;;;;;;5013684;28;20489;-82
2021/12/29 04:10:14;;;;;;;0.20;0.20;;;12.80;99.90;;;;;;5010451;28;20037;-82
2021/12/29 04:12:41;;;;;;;1.65;1.52;;;12.80;99.90;;;;;;5012547;28;20496;-83
2021/12/29 04:15:10;;;;;;;0.15;0.15;;;12.80;99.90;;;;;;5013745;28;20037;-83
2021/12/29 04:17:37;;;;;;;2.60;1.42;;;12.80;99.90;;;;;;5012612;28;20144;-84
2021/12/29 04:22:55;;;;;;;0.20;0.20;;;12.80;99.90;;;;;;5012298;28;20064;-79
2021/12/29 04:25:25;;;;;;;1.10;0.95;;;12.80;99.90;;;;;;4995418;28;20090;-78
2021/12/29 04:27:52;;;;;;;0.65;0.65;;;12.80;99.90;;;;;;5011967;28;20042;-79
2021/12/29 04:30:18;;;;;;;1.75;1.45;;;12.80;99.90;;;;;;5012147;28;20026;-79
2021/12/29 04:32:44;;;;;;;32.05;1.15;;;12.80;99.90;;;;;;5012289;28;20477;-78
2021/12/29 04:35:10;;;;;;;1.58;0.70;;;12.90;99.90;;;;;;5011903;28;20037;-78
2021/12/29 04:37:35;;;;;;;18.55;1.90;;;12.90;99.90;;;;;;5010785;28;20026;-79
2021/12/29 04:40:01;;;;;;;1.05;0.98;;;12.90;99.90;;;;;;5010781;28;20057;-78
2021/12/29 04:42:27;;;;;;;0.00;0.00;;;12.90;99.90;;;;;;5012245;28;20014;-78
2021/12/29 04:44:53;;;;;;;0.00;0.00;;;12.90;99.90;;;;;;5015585;28;20048;-78
2021/12/29 04:47:19;;;;;;;2.55;2.35;;;12.90;99.90;;;;;;5015385;28;20030;-79
2021/12/29 04:49:45;;;;;;;0.50;0.50;;;12.90;99.90;;;;;;5014922;28;20025;-78
2021/12/29 04:52:11;;;;;;;0.08;0.08;;;12.90;99.90;;;;;;5014079;28;20054;-79
2021/12/29 04:54:38;;;;;;;2.85;1.35;;;12.90;99.90;;;;;;5015283;28;20045;-80
2021/12/29 04:57:04;;;;;;;2.63;2.35;;;12.90;99.90;;;;;;5016122;28;20049;-83
2021/12/29 04:59:30;;;;;;;0.35;0.35;;;12.90;99.90;;;;;;5017764;28;20018;-84
2021/12/29 05:01:56;;;;;;;0.32;0.32;;;12.90;99.90;;;;;;5017168;28;20080;-79
2021/12/29 05:04:44;;;;;;;3.88;1.77;;;12.90;99.90;;;;;;5015335;28;20516;-79
2021/12/29 05:09:54;;;;;;;6.70;0.55;;;12.90;99.90;;;;;;5017911;28;20153;-83
2021/12/29 05:12:20;;;;;;;0.30;0.30;;;13.00;99.90;;;;;;5016303;28;20061;-82
2021/12/29 05:14:45;;;;;;;3.17;1.38;;;13.00;99.90;;;;;;5014786;28;20053;-81
2021/12/29 05:17:11;;;;;;;2.85;1.85;;;12.90;99.90;;;;;;5014960;28;20061;-78
2021/12/29 05:19:37;;;;;;;0.95;0.95;;;13.00;99.90;;;;;;5014689;28;20034;-80
2021/12/29 05:22:03;;;;;;;0.35;0.20;;;13.00;99.90;;;;;;5014859;28;20498;-81
2021/12/29 05:24:29;;;;;;;1.00;0.90;;;12.90;99.90;;;;;;5005276;28;20036;-77
2021/12/29 05:26:55;;;;;;;0.32;0.32;;;12.90;99.90;;;;;;5008339;28;20143;-80
2021/12/29 05:29:20;;;;;;;1.45;0.43;;;13.00;99.90;;;;;;5014825;28;20088;-80
2021/12/29 05:31:46;;;;;;;0.00;0.00;;;12.90;99.90;;;;;;5015083;28;20105;-82
2021/12/29 05:34:12;;;;;;;0.63;0.63;;;12.90;99.90;;;;;;5014820;28;20045;-81
2021/12/29 05:36:37;;;;;;;0.00;0.00;;;12.90;99.90;;;;;;5013087;28;20026;-77
2021/12/29 05:39:04;;;;;;;1.50;1.40;;;12.90;99.90;;;;;;5014714;28;20033;-82
2021/12/29 05:41:29;;;;;;;2.10;0.98;;;12.90;99.90;;;;;;5015095;28;20021;-77
2021/12/29 05:43:55;;;;;;;1.08;1.00;;;12.90;99.90;;;;;;5014724;28;20030;-81
2021/12/29 05:46:21;;;;;;;0.03;0.03;;;12.90;99.90;;;;;;5015799;28;20033;-82
2021/12/29 05:48:46;;;;;;;3.15;2.58;;;12.90;99.90;;;;;;5013559;28;20499;-82
2021/12/29 05:51:12;;;;;;;0.73;0.73;;;12.90;99.90;;;;;;5015949;28;20445;-82
2021/12/29 05:53:40;;;;;;;0.22;0.22;;;12.90;99.90;;;;;;5014805;28;20030;-78
2021/12/29 05:56:06;;;;;;;1.13;0.98;;;12.90;99.90;;;;;;5014218;28;20033;-77
2021/12/29 05:58:32;;;;;;;1.88;1.77;;;12.90;99.90;;;;;;5014194;28;20029;-78
2021/12/29 06:00:57;;;;;;;2.47;1.70;;;12.90;99.90;;;;;;5014473;28;20022;-77
2021/12/29 06:03:23;;;;;;;2.75;1.35;;;12.90;99.90;;;;;;5014455;28;20034;-81
2021/12/29 06:05:49;;;;;;;14.50;2.20;;;12.90;99.90;;;;;;5014150;28;20029;-77
2021/12/29 06:08:14;;;;;;;1.45;1.45;;;12.90;99.90;;;;;;5013872;28;20038;-77
2021/12/29 06:10:41;;;;;;;8.35;3.25;;;12.90;99.90;;;;;;5014179;28;20045;-78
2021/12/29 06:13:07;;;;;;;0.68;0.65;;;12.90;99.90;;;;;;5012597;28;20037;-81
2021/12/29 06:15:33;;;;;;;0.22;0.22;;;12.90;99.90;;;;;;5013863;28;20022;-77
2021/12/29 06:17:59;;;;;;;0.20;0.20;;;12.90;99.90;;;;;;5014546;28;20032;-77
2021/12/29 06:20:24;;;;;;;1.77;0.90;;;13.00;99.90;;;;;;5013604;28;20374;-78
2021/12/29 06:22:50;;;;;;;0.70;0.70;;;13.00;99.90;;;;;;5013534;28;20033;-76
2021/12/29 06:25:17;;;;;;;0.00;0.00;;;13.00;99.90;;;;;;5012443;28;20440;-81
2021/12/29 06:27:43;;;;;;;0.20;0.20;;;12.90;99.90;;;;;;5013756;28;20069;-82
2021/12/29 06:30:12;;;;;;;2.83;2.00;;;12.90;99.90;;;;;;5014786;28;20068;-81
2021/12/29 06:32:39;;;;;;;1.25;0.75;;;12.90;99.90;;;;;;5013820;28;20022;-77
2021/12/29 06:35:07;;;;;;;0.00;0.00;;;12.90;99.90;;;;;;5011263;28;20049;-77
2021/12/29 06:37:33;;;;;;;0.00;0.00;;;12.90;99.90;;;;;;4994507;28;20030;-80
2021/12/29 06:39:58;;;;;;;0.60;0.47;;;12.90;99.90;;;;;;5025367;28;20050;-80
2021/12/29 06:42:24;;;;;;;0.35;0.35;;;13.00;99.90;;;;;;4993836;28;20063;-79
2021/12/29 06:44:50;;;;;;;1.65;0.77;;;12.90;99.90;;;;;;4993579;28;20030;-76
2021/12/29 06:47:16;;;;;;;0.30;0.30;;;12.80;99.90;;;;;;4998303;28;20022;-77
2021/12/29 06:49:42;;;;;;;0.10;0.10;;;12.80;99.90;;;;;;5012696;28;20397;-80
2021/12/29 06:52:08;;;;;;;0.08;0.08;;;12.80;99.90;;;;;;5011829;28;20029;-77
2021/12/29 06:54:34;;;;;;;0.00;0.00;;;12.80;99.90;;;;;;5012993;28;20053;-79
2021/12/29 06:57:00;;;;;;;0.00;0.00;;;12.80;99.90;;;;;;5011999;28;20109;-79
2021/12/29 06:59:26;;;;;;;0.00;0.00;;;12.80;99.90;;;;;;5012991;28;20026;-81
2021/12/29 07:01:52;;;;;;;5.15;1.75;;;12.80;99.90;;;;;;5013211;28;20029;-80
2021/12/29 07:04:18;;;;;;;1.15;0.38;;;12.80;99.90;;;;;;5013121;28;20037;-78
2021/12/29 07:06:44;;;;;;;3.03;1.63;;;12.80;99.90;;;;;;5012203;28;20022;-79
2021/12/29 07:09:10;;;;;;;0.22;0.22;;;12.80;99.90;;;;;;5012707;28;20030;-79
2021/12/29 07:11:37;;;;;;;1.08;0.98;;;12.90;99.90;;;;;;5011168;28;20036;-76
2021/12/29 07:14:05;;;;;;;0.65;0.65;;;12.90;99.90;;;;;;5011953;28;20113;-77
2021/12/29 07:16:31;;;;;;;0.00;0.00;;;12.90;99.90;;;;;;5012969;28;20014;-79
2021/12/29 07:18:57;;;;;;;0.00;0.00;;;12.90;99.90;;;;;;5012788;28;20022;-79
2021/12/29 07:21:24;;;;;;;0.52;0.52;;;12.90;99.90;;;;;;5011041;28;20524;-79
2021/12/29 07:23:51;;;;;;;0.00;0.00;;;12.80;99.90;;;;;;5012763;28;20030;-76
2021/12/29 07:26:17;;;;;;;0.38;0.35;;;12.80;99.90;;;;;;5012278;28;20370;-75
2021/12/29 07:28:43;;;;;;;0.00;0.00;;;12.80;99.90;;;;;;5011842;28;20064;-81
2021/12/29 07:31:08;;;;;;;0.30;0.30;;;12.80;99.90;;;;;;5013119;28;20038;-80
2021/12/29 07:33:34;;;;;;;4.15;0.52;;;12.80;99.90;;;;;;5012642;28;20034;-80
2021/12/29 07:36:00;;;;;;;1.48;0.52;;;12.70;99.90;;;;;;5012539;28;20096;-81
2021/12/29 07:38:26;;;;;;;0.00;0.00;;;12.70;99.90;;;;;;5012885;28;20026;-78
2021/12/29 07:40:52;;;;;;;0.30;0.30;;;12.70;99.90;;;;;;5006724;28;20152;-77
2021/12/29 07:43:18;;;;;;;0.00;0.00;;;12.70;99.90;;;;;;5010818;28;20452;-81
2021/12/29 07:45:44;;;;;;;0.10;0.05;;;12.70;99.90;;;;;;5013391;28;20068;-81
2021/12/29 07:48:10;;;;;;;0.88;0.65;;;12.80;99.90;;;;;;5012719;28;20061;-78
2021/12/29 07:50:37;;;;;;;0.10;0.10;;;12.80;99.90;;;;;;5012235;28;20077;-78
2021/12/29 07:53:04;;;;;;;0.00;0.00;;;12.80;99.90;;;;;;5012219;28;20040;-78
2021/12/29 07:55:30;;;;;;;0.55;0.55;;;12.80;99.90;;;;;;5011715;28;20109;-81
2021/12/29 07:57:56;;;;;;;0.65;0.63;;;12.80;99.90;;;;;;5012724;28;20465;-81
2021/12/29 08:00:22;;;;;;;0.00;0.00;;;12.80;99.90;;;;;;5012844;28;20062;-79
2021/12/29 08:02:49;;;;;;;0.00;0.00;;;12.80;99.90;;;;;;5012491;28;20396;-78
2021/12/29 08:05:15;;;;;;;0.00;0.00;;;12.80;99.90;;;;;;5010960;28;20029;-78
2021/12/29 08:07:41;;;;;;;0.00;0.00;;;12.70;99.90;;;;;;5012255;28;20116;-79
2021/12/29 08:10:07;;;;;;;0.22;0.22;;;12.70;99.90;;;;;;5012501;28;20100;-80
2021/12/29 08:12:33;;;;;;;0.00;0.00;;;12.70;99.90;;;;;;5008059;28;20037;-80
2021/12/29 08:14:59;;;;;;;0.10;0.10;;;12.70;99.90;;;;;;5001232;28;20080;-82
2021/12/29 08:17:24;;;;;;;0.85;0.80;;;12.70;99.90;;;;;;5008098;28;20046;-78
2021/12/29 08:19:50;;;;;;;0.10;0.10;;;12.70;99.90;;;;;;5002940;28;20026;-80
2021/12/29 08:22:16;;;;;;;0.70;0.38;;;12.70;99.90;;;;;;5013728;28;20095;-81
2021/12/29 08:24:42;;;;;;;2.88;1.85;;;12.80;99.90;;;;;;5003367;28;20030;-79
2021/12/29 08:27:08;;;;;;;0.10;0.10;;;12.80;99.90;;;;;;5003202;28;20038;-79
2021/12/29 08:29:33;;;;;;;0.75;0.43;;;12.90;99.90;;;;;;5015814;28;20029;-78
2021/12/29 08:31:59;;;;;;;0.13;0.13;;;12.90;99.90;;;;;;5013565;28;20109;-77
2021/12/29 08:34:25;;;;;;;0.00;0.00;;;12.90;99.90;;;;;;5010308;28;20033;-81
2021/12/29 08:36:52;;;;;;;0.65;0.50;;;12.90;99.90;;;;;;5010668;28;20018;-78
2021/12/29 08:39:22;;;;;;;0.25;0.25;;;13.00;99.90;;;;;;5015685;28;20033;-81
2021/12/29 08:41:49;;;;;;;0.22;0.22;;;13.00;99.90;;;;;;5010487;28;20026;-80
2021/12/29 08:44:15;;;;;;;2.00;0.95;;;13.00;99.90;;;;;;5007233;28;20041;-79
2021/12/29 08:46:41;;;;;;;5.07;0.80;;;13.00;99.90;;;;;;5012938;28;20112;-81
2021/12/29 08:49:07;;;;;;;0.00;0.00;;;13.00;99.90;;;;;;5015546;28;20042;-81
2021/12/29 08:51:33;;;;;;;0.20;0.20;;;13.00;99.90;;;;;;5013342;28;20022;-81
2021/12/29 08:53:59;;;;;;;2.28;0.90;;;13.00;99.90;;;;;;5000107;28;20030;-81
2021/12/29 08:56:25;;;;;;;2.72;1.45;;;13.00;99.90;;;;;;5012560;28;20033;-79
2021/12/29 08:58:53;;;;;;;0.00;0.00;;;13.00;99.90;;;;;;5014733;28;20030;-80
2021/12/29 09:01:20;;;;;;;0.00;0.00;;;13.10;99.90;;;;;;4997612;28;20023;-81
2021/12/29 09:03:48;;;;;;;0.75;0.75;;;13.10;99.90;;;;;;5003602;28;20052;-82
2021/12/29 09:06:15;;;;;;;0.52;0.52;;;13.10;99.90;;;;;;5018501;28;20022;-83
2021/12/29 09:08:41;;;;;;;2.78;1.65;;;13.20;99.90;;;;;;5017736;28;20034;-78
2021/12/29 09:11:08;;;;;;;2.05;1.23;;;13.20;99.90;;;;;;5015861;28;20529;-78
2021/12/29 09:13:34;;;;;;;6.25;0.95;;;13.30;99.90;;;;;;5000074;28;20413;-82
2021/12/29 09:16:00;;;;;;;0.00;0.00;;;13.30;99.90;;;;;;4997630;28;20734;-81
2021/12/29 09:18:30;;;;;;;5.10;0.90;;;13.30;99.90;;;;;;4995473;28;20109;-82
2021/12/29 09:21:04;;;;;;;0.00;0.00;;;13.40;99.90;;;;;;5009456;28;20109;-78
2021/12/29 09:23:30;;;;;;;5.18;1.15;;;13.30;99.90;;;;;;4995296;28;20030;-78
2021/12/29 09:25:56;;;;;;;0.32;0.32;;;13.30;99.90;;;;;;5005232;28;20504;-81
2021/12/29 09:28:22;;;;;;;0.03;0.03;;;13.40;99.90;;;;;;5013672;28;20049;-82
2021/12/29 09:30:49;;;;;;;0.10;0.10;;;13.40;99.90;;;;;;5013249;28;20073;-82
2021/12/29 09:33:16;;;;;;;0.28;0.28;;;13.50;99.90;;;;;;5014737;28;20489;-83
2021/12/29 09:35:43;;;;;;;0.52;0.47;;;13.40;99.90;;;;;;5012443;28;20113;-79
2021/12/29 09:38:10;;;;;;;0.63;0.63;;;13.50;99.90;;;;;;5013222;28;20022;-79
2021/12/29 09:40:38;;;;;;;0.20;0.20;;;13.50;99.90;;;;;;5014133;28;20106;-81
2021/12/29 09:43:06;;;;;;;0.08;0.08;;;13.40;99.90;;;;;;5012121;28;20033;-80
2021/12/29 09:45:32;;;;;;;0.00;0.00;;;13.40;99.90;;;;;;5012833;28;20026;-78
2021/12/29 09:47:58;;;;;;;0.25;0.15;;;13.40;99.90;;;;;;5014208;28;20037;-78
2021/12/29 09:50:26;;;;;;;0.10;0.10;;;13.40;99.90;;;;;;5013601;28;20052;-81
2021/12/29 09:52:52;;;;;;;0.00;0.00;;;13.40;99.90;;;;;;5014174;28;20022;-80
2021/12/29 09:55:21;;;;;;;0.00;0.00;;;13.40;99.90;;;;;;5013907;28;20041;-81
2021/12/29 09:57:49;;;;;;;1.15;0.90;;;13.40;99.90;;;;;;5014432;28;20069;-81
2021/12/29 10:00:28;;;;;;;1.52;0.65;;;13.40;99.90;;;;;;5013700;28;20029;-81
2021/12/29 10:02:56;;;;;;;0.20;0.20;;;13.50;99.90;;;;;;5014134;28;20021;-78
2021/12/29 10:05:24;;;;;;;0.47;0.47;;;13.40;99.90;;;;;;5013418;28;20028;-79
2021/12/29 10:07:57;;;;;;;5.93;2.28;;;13.40;99.90;;;;;;5014098;28;20026;-81
2021/12/29 10:10:23;;;;;;;0.00;0.00;;;13.40;99.90;;;;;;5013087;28;20029;-79
2021/12/29 10:12:49;;;;;;;6.80;3.17;;;13.50;99.90;;;;;;5011613;28;20030;-80
2021/12/29 10:15:15;;;;;;;1.13;1.02;;;13.60;99.90;;;;;;5013113;28;20041;-81
2021/12/29 10:17:41;;;;;;;2.00;0.90;;;13.70;99.90;;;;;;5015032;28;20022;-82
2021/12/29 10:20:14;;;;;;;0.00;0.00;;;13.70;99.90;;;;;;5004619;28;20097;-80
2021/12/29 10:22:41;;;;;;;0.35;0.35;;;13.70;99.90;;;;;;5009563;28;20486;-80
2021/12/29 10:25:19;;;;;;;0.47;0.47;;;13.70;99.90;;;;;;4997680;28;20056;-78
2021/12/29 10:27:44;;;;;;;1.65;0.52;;;13.70;99.90;;;;;;5013150;28;20061;-80
2021/12/29 10:30:36;;;;;;;0.20;0.20;;;13.80;99.90;;;;;;5013546;28;20563;-78
2021/12/29 10:33:13;;;;;;;1.90;1.27;;;13.80;99.90;;;;;;5012462;28;20129;-79
2021/12/29 10:35:38;;;;;;;4.22;0.38;;;13.70;99.90;;;;;;5012847;28;20021;-78
2021/12/29 10:38:10;;;;;;;0.20;0.20;;;13.70;99.90;;;;;;5013363;28;20096;-78
2021/12/29 10:40:36;;;;;;;0.22;0.22;;;13.80;99.90;;;;;;5011788;28;20443;-79
2021/12/29 10:43:02;;;;;;;0.57;0.57;;;13.80;99.90;;;;;;5013252;28;20025;-79
2021/12/29 10:45:29;;;;;;;2.95;1.70;;;13.80;99.90;;;;;;5013182;28;20021;-79
2021/12/29 10:47:55;;;;;;;0.63;0.63;;;13.90;99.90;;;;;;5011712;28;20045;-78
2021/12/29 10:50:20;;;;;;;2.60;1.63;;;13.90;99.90;;;;;;5012604;28;20036;-78
2021/12/29 10:52:53;;;;;;;0.00;0.00;;;13.80;99.90;;;;;;5012991;28;20040;-79
2021/12/29 10:55:19;;;;;;;;;;;13.80;99.90;;;;;;5013641;28;20114;-78
2021/12/29 10:57:46;;;;;;;0.10;0.10;;;13.80;99.90;;;;;;5013166;28;19952;-78
2021/12/29 11:00:18;;;;;;;0.25;0.25;;;13.90;99.90;;;;;;5013016;28;20022;-78
2021/12/29 11:02:46;;;;;;;0.00;0.00;;;13.90;99.90;;;;;;5012813;28;20049;-78
2021/12/29 11:05:12;;;;;;;0.00;0.00;;;13.90;99.90;;;;;;5012464;28;20392;-79
2021/12/29 11:07:39;;;;;;;1.48;0.75;;;13.80;99.90;;;;;;5013093;28;20033;-80
2021/12/29 11:10:19;;;;;;;1.65;0.70;;;13.70;99.90;;;;;;5012287;28;20029;-82
2021/12/29 11:12:49;;;;;;;0.70;0.47;;;13.60;99.90;;;;;;5014092;28;20026;-84
2021/12/29 11:15:37;;;;;;;0.32;0.32;;;13.60;99.90;;;;;;5013536;28;20041;-81
2021/12/29 11:18:09;;;;;;;0.00;0.00;;;13.70;99.90;;;;;;5013869;28;20494;-79
2021/12/29 11:20:35;;;;;;;0.35;0.35;;;13.70;99.90;;;;;;5012557;28;20555;-82
2021/12/29 11:23:10;;;;;;;0.00;0.00;;;13.80;99.90;;;;;;5014122;28;20022;-81
2021/12/29 11:25:38;;;;;;;0.20;0.20;;;13.80;99.90;;;;;;5015362;28;20032;-83
2021/12/29 11:28:05;;;;;;;0.03;0.03;;;13.70;99.90;;;;;;5014218;28;20092;-80
2021/12/29 11:30:32;;;;;;;0.00;0.00;;;13.60;99.90;;;;;;5013555;28;20026;-80
2021/12/29 11:33:10;;;;;;;0.10;0.10;;;13.70;99.90;;;;;;5012813;28;20481;-80
2021/12/29 11:35:43;;;;;;;0.00;0.00;;;13.70;99.90;;;;;;5012456;28;20049;-79
2021/12/29 11:38:09;;;;;;;0.00;0.00;;;13.70;99.90;;;;;;5011423;28;20436;-78
2021/12/29 11:40:40;;;;;;;0.00;0.00;;;13.80;99.90;;;;;;5012591;28;20396;-78
2021/12/29 11:43:09;;;;;;;0.00;0.00;;;13.90;99.90;;;;;;5011299;28;20374;-78
2021/12/29 11:45:37;;;;;;;3.95;1.58;;;14.00;99.90;;;;;;5012570;28;20412;-79
2021/12/29 11:48:03;;;;;;;3.50;0.88;;;14.00;99.90;;;;;;5012295;28;20017;-78
2021/12/29 11:50:34;;;;;;;1.15;1.08;;;14.10;99.90;;;;;;5011054;28;20064;-79
2021/12/29 11:53:09;;;;;;;0.30;0.10;;;14.20;99.90;;;;;;5014525;28;20018;-78
2021/12/29 11:56:03;;;;;;;0.00;0.00;;;14.20;99.90;;;;;;5016417;28;20107;-78
2021/12/29 11:58:32;;;;;;;0.30;0.30;;;14.10;99.90;;;;;;5016307;28;20022;-80
2021/12/29 12:01:16;;;;;;;1.85;0.88;;;14.00;99.90;;;;;;5015574;28;20022;-81
2021/12/29 12:03:44;;;;;;;0.00;0.00;;;13.90;99.90;;;;;;5017720;28;20018;-82
2021/12/29 12:06:43;;;;;;;0.28;0.28;;;13.80;99.90;;;;;;5019445;28;20026;-82
2021/12/29 12:09:16;;;;;;;0.20;0.20;;;13.80;99.90;;;;;;5016576;28;20854;-81
2021/12/29 12:11:51;;;;;;;1.85;0.38;;;13.80;99.90;;;;;;5018247;28;20026;-80
2021/12/29 12:14:36;;;;;;;0.30;0.30;;;13.80;99.90;;;;;;5017144;28;20512;-82
2021/12/29 12:17:17;;;;;;;1.45;1.20;;;13.90;99.90;;;;;;5018063;28;20504;-81
2021/12/29 12:19:45;;;;;;;3.28;1.17;;;13.70;99.90;;;;;;5018996;28;20101;-81
2021/12/29 12:22:19;;;;;;;2.95;1.75;;;13.50;99.90;;;;;;5015871;28;20025;-83
2021/12/29 12:24:50;;;;;;;15.10;1.20;;;13.50;99.90;;;;;;5015876;28;20018;-79
2021/12/29 12:27:34;;;;;;;0.00;0.00;;;13.40;99.90;;;;;;5012480;28;20524;-83
2021/12/29 12:30:17;;;;;;;0.20;0.20;;;13.30;99.90;;;;;;5014520;28;20512;-83
2021/12/29 12:32:57;;;;;;;0.00;0.00;;;13.30;99.90;;;;;;5015841;28;20022;-83
2021/12/29 12:35:31;;;;;;;0.00;0.00;;;13.30;99.90;;;;;;5014320;28;20037;-83
2021/12/29 12:37:57;;;;;;;0.52;0.52;;;13.50;99.90;;;;;;5016138;28;20026;-80
2021/12/29 12:40:30;;;;;;;0.00;0.00;;;13.50;99.90;;;;;;5015771;28;20080;-83
2021/12/29 12:43:02;;;;;;;0.73;0.73;;;13.50;99.90;;;;;;5015648;28;20057;-83
2021/12/29 12:45:33;;;;;;;0.70;0.70;;;13.60;99.90;;;;;;5016738;28;20034;-83
2021/12/29 12:48:19;;;;;;;0.00;0.00;;;13.60;99.90;;;;;;5015677;28;20026;-83
2021/12/29 12:50:45;;;;;;;2.40;0.57;;;13.60;99.90;;;;;;5015040;28;20037;-84
2021/12/29 12:53:14;;;;;;;0.50;0.50;;;13.60;99.90;;;;;;5015607;28;20503;-84
2021/12/29 12:55:59;;;;;;;0.52;0.52;;;13.50;99.90;;;;;;5016313;28;20029;-83
2021/12/29 12:58:29;;;;;;;0.85;0.75;;;13.50;99.90;;;;;;5018360;28;20026;-82